createdAt,value
2018-12-16T00:01:42.652Z,15.63
2018-12-16T00:04:09.782Z,14.60
2018-12-16T00:06:36.918Z,15.20
2018-12-16T00:09:05.585Z,14.35
2018-12-16T00:11:32.821Z,14.13
2018-12-16T00:13:59.936Z,14.05
2018-12-16T00:16:27.101Z,15.10
2018-12-16T00:18:54.282Z,15.03
2018-12-16T00:21:21.428Z,15.08
2018-12-16T00:23:48.759Z,15.68
2018-12-16T00:26:15.998Z,14.85
2018-12-16T00:28:43.250Z,16.25
2018-12-16T00:31:10.360Z,14.13
2018-12-16T00:33:37.530Z,14.03
2018-12-16T00:36:04.885Z,15.43
2018-12-16T00:38:32.071Z,13.30
2018-12-16T00:40:59.190Z,14.80
2018-12-16T00:43:26.315Z,14.10
2018-12-16T00:45:53.554Z,14.45
2018-12-16T00:48:20.914Z,15.32
2018-12-16T00:50:48.071Z,14.93
2018-12-16T00:53:15.211Z,14.75
2018-12-16T00:55:42.453Z,14.33
2018-12-16T00:58:09.592Z,14.63
2018-12-16T01:00:36.820Z,14.43
2018-12-16T01:03:04.364Z,14.45
2018-12-16T01:05:31.515Z,14.70
2018-12-16T01:07:58.625Z,15.68
2018-12-16T01:10:26.032Z,14.78
2018-12-16T01:12:53.146Z,15.18
2018-12-16T01:15:20.419Z,14.58
2018-12-16T01:17:47.538Z,14.73
2018-12-16T01:20:14.787Z,14.40
2018-12-16T01:22:43.638Z,14.80
2018-12-16T01:25:11.227Z,15.00
2018-12-16T01:27:38.366Z,14.78
2018-12-16T01:30:05.745Z,13.70
2018-12-16T01:32:33.020Z,15.53
2018-12-16T01:35:00.199Z,14.45
2018-12-16T01:37:27.439Z,14.95
2018-12-16T01:39:54.695Z,14.90
2018-12-16T01:42:21.904Z,15.08
2018-12-16T01:44:49.038Z,14.10
2018-12-16T01:47:16.169Z,14.13
2018-12-16T01:49:43.280Z,14.68
2018-12-16T01:52:10.405Z,15.30
2018-12-16T01:54:37.623Z,14.65
2018-12-16T01:57:04.738Z,14.95
2018-12-16T01:59:31.854Z,15.08
2018-12-16T02:01:58.989Z,14.85
2018-12-16T02:04:26.109Z,15.40
2018-12-16T02:06:53.228Z,15.63
2018-12-16T02:09:20.658Z,15.70
2018-12-16T02:11:47.931Z,14.47
2018-12-16T02:14:15.052Z,15.15
2018-12-16T02:16:42.212Z,14.75
2018-12-16T02:19:09.437Z,14.93
2018-12-16T02:21:36.807Z,15.15
2018-12-16T02:24:04.042Z,14.53
2018-12-16T02:26:31.294Z,14.50
2018-12-16T02:28:58.411Z,16.12
2018-12-16T02:31:25.677Z,15.18
2018-12-16T02:33:53.467Z,15.95
2018-12-16T02:36:20.727Z,14.60
2018-12-16T02:38:47.849Z,14.85
2018-12-16T02:41:14.969Z,15.32
2018-12-16T02:43:42.185Z,15.28
2018-12-16T02:46:09.307Z,14.73
2018-12-16T02:48:36.531Z,13.95
2018-12-16T02:51:04.389Z,14.93
2018-12-16T02:53:31.501Z,14.63
2018-12-16T02:55:58.693Z,14.63
2018-12-16T02:58:25.922Z,15.20
2018-12-16T03:00:53.364Z,15.63
2018-12-16T03:03:20.507Z,15.23
2018-12-16T03:05:48.023Z,14.85
2018-12-16T03:08:15.173Z,14.75
2018-12-16T03:10:42.406Z,14.43
2018-12-16T03:13:09.667Z,15.45
2018-12-16T03:18:11.010Z,16.23
2018-12-16T03:20:38.271Z,15.58
2018-12-16T03:23:11.978Z,15.35
2018-12-16T03:25:34.606Z,15.85
2018-12-16T03:28:01.839Z,14.63
2018-12-16T03:30:29.126Z,15.18
2018-12-16T03:32:56.406Z,15.10
2018-12-16T03:35:23.653Z,15.45
2018-12-16T03:37:50.910Z,15.38
2018-12-16T03:40:18.050Z,14.95
2018-12-16T03:42:45.321Z,14.90
2018-12-16T03:45:12.658Z,16.32
2018-12-16T03:50:14.071Z,16.12
2018-12-16T03:52:41.198Z,15.45
2018-12-16T03:55:08.314Z,15.30
2018-12-16T03:57:35.434Z,16.25
2018-12-16T04:00:02.819Z,16.27
2018-12-16T04:02:29.950Z,16.35
2018-12-16T04:04:57.070Z,15.48
2018-12-16T04:07:24.205Z,16.85
2018-12-16T04:09:51.335Z,17.73
2018-12-16T04:12:18.694Z,17.45
2018-12-16T04:14:46.034Z,15.68
2018-12-16T04:17:13.175Z,17.65
2018-12-16T04:19:40.309Z,18.77
2018-12-16T04:22:07.625Z,17.80
2018-12-16T04:24:34.737Z,17.02
2018-12-16T04:27:01.869Z,18.60
2018-12-16T04:29:35.911Z,18.70
2018-12-16T04:32:03.045Z,18.75
2018-12-16T04:34:30.283Z,19.25
2018-12-16T04:36:57.654Z,19.32
2018-12-16T04:39:24.782Z,20.37
2018-12-16T04:41:52.385Z,21.10
2018-12-16T04:44:19.533Z,19.87
2018-12-16T04:46:46.646Z,20.80
2018-12-16T04:49:13.788Z,20.02
2018-12-16T04:51:41.003Z,20.35
2018-12-16T04:54:08.255Z,20.52
2018-12-16T04:56:35.361Z,20.85
2018-12-16T04:59:02.717Z,20.77
2018-12-16T05:01:29.843Z,20.10
2018-12-16T05:03:57.089Z,20.10
2018-12-16T05:06:24.405Z,21.00
2018-12-16T05:08:51.646Z,20.48
2018-12-16T05:11:18.821Z,20.00
2018-12-16T05:13:45.995Z,20.15
2018-12-16T05:16:13.151Z,21.25
2018-12-16T05:18:40.355Z,19.98
2018-12-16T05:21:07.471Z,19.70
2018-12-16T05:23:34.666Z,21.48
2018-12-16T05:26:01.781Z,21.02
2018-12-16T05:28:28.906Z,20.57
2018-12-16T05:30:56.046Z,21.62
2018-12-16T05:33:23.252Z,20.57
2018-12-16T05:35:50.491Z,20.25
2018-12-16T05:38:17.733Z,20.12
2018-12-16T05:40:44.851Z,21.42
2018-12-16T05:43:12.095Z,20.92
2018-12-16T05:45:39.342Z,21.40
2018-12-16T05:48:06.474Z,20.55
2018-12-16T05:50:33.589Z,21.35
2018-12-16T05:53:00.750Z,21.75
2018-12-16T05:55:27.960Z,20.43
2018-12-16T05:57:55.203Z,21.42
2018-12-16T06:00:22.445Z,22.98
2018-12-16T06:02:49.578Z,22.10
2018-12-16T06:05:16.771Z,22.32
2018-12-16T06:07:44.021Z,22.00
2018-12-16T06:10:11.159Z,22.02
2018-12-16T06:12:38.306Z,22.48
2018-12-16T06:15:05.744Z,21.30
2018-12-16T06:17:32.890Z,21.77
2018-12-16T06:20:00.031Z,21.70
2018-12-16T06:22:27.189Z,34.30
2018-12-16T06:24:54.436Z,25.62
2018-12-16T06:27:21.571Z,22.55
2018-12-16T06:29:49.024Z,20.30
2018-12-16T06:32:16.144Z,21.25
2018-12-16T06:34:43.417Z,21.73
2018-12-16T06:37:10.546Z,21.62
2018-12-16T06:39:37.667Z,21.70
2018-12-16T06:42:04.897Z,21.45
2018-12-16T06:44:32.129Z,21.68
2018-12-16T06:46:59.302Z,21.62
2018-12-16T06:49:26.502Z,22.05
2018-12-16T06:51:53.781Z,21.10
2018-12-16T06:54:20.922Z,22.13
2018-12-16T06:56:48.036Z,22.35
2018-12-16T06:59:15.168Z,21.52
2018-12-16T07:01:42.645Z,21.93
2018-12-16T07:04:09.775Z,21.80
2018-12-16T07:06:36.903Z,22.27
2018-12-16T07:09:05.976Z,22.75
2018-12-16T07:11:33.265Z,21.82
2018-12-16T07:14:00.566Z,20.70
2018-12-16T07:16:27.750Z,23.07
2018-12-16T07:18:54.907Z,22.10
2018-12-16T07:21:22.280Z,21.68
2018-12-16T07:23:49.539Z,23.15
2018-12-16T07:26:17.053Z,22.90
2018-12-16T07:28:45.341Z,22.87
2018-12-16T07:31:12.738Z,23.02
2018-12-16T07:33:39.969Z,22.07
2018-12-16T07:36:07.310Z,22.05
2018-12-16T07:38:34.647Z,22.52
2018-12-16T07:41:02.047Z,22.22
2018-12-16T07:43:29.166Z,23.25
2018-12-16T07:45:56.345Z,22.00
2018-12-16T07:48:23.606Z,22.75
2018-12-16T07:50:50.966Z,22.60
2018-12-16T07:53:18.284Z,22.67
2018-12-16T07:55:45.450Z,23.02
2018-12-16T07:58:12.580Z,23.00
2018-12-16T08:00:39.772Z,23.18
2018-12-16T08:03:06.990Z,23.02
2018-12-16T08:05:34.161Z,23.52
2018-12-16T08:08:01.397Z,23.22
2018-12-16T08:10:28.681Z,22.98
2018-12-16T08:12:55.898Z,23.80
2018-12-16T08:15:24.074Z,23.77
2018-12-16T08:17:51.313Z,26.82
2018-12-16T08:20:18.720Z,25.97
2018-12-16T08:22:45.864Z,26.57
2018-12-16T08:25:13.035Z,25.50
2018-12-16T08:27:40.240Z,26.07
2018-12-16T08:30:08.200Z,23.30
2018-12-16T08:32:35.474Z,23.87
2018-12-16T08:35:03.334Z,25.72
2018-12-16T08:37:30.460Z,25.35
2018-12-16T08:39:57.806Z,25.70
2018-12-16T08:42:24.933Z,25.08
2018-12-16T08:44:52.183Z,23.92
2018-12-16T08:47:19.406Z,24.25
2018-12-16T08:49:46.543Z,24.23
2018-12-16T08:52:13.644Z,24.32
2018-12-16T08:54:41.893Z,22.73
2018-12-16T08:57:09.008Z,23.18
2018-12-16T08:59:36.148Z,23.85
2018-12-16T09:02:03.445Z,21.10
2018-12-16T09:04:31.581Z,23.75
2018-12-16T09:06:59.068Z,22.77
2018-12-16T09:09:26.638Z,23.45
2018-12-16T09:11:53.890Z,23.35
2018-12-16T09:14:21.097Z,22.17
2018-12-16T09:16:48.290Z,22.07
2018-12-16T09:19:15.605Z,22.02
2018-12-16T09:21:42.724Z,23.18
2018-12-16T09:24:09.836Z,23.07
2018-12-16T09:26:37.005Z,24.12
2018-12-16T09:29:04.189Z,23.05
2018-12-16T09:31:31.449Z,22.50
2018-12-16T09:33:58.678Z,23.38
2018-12-16T09:36:25.809Z,24.27
2018-12-16T09:38:53.057Z,24.07
2018-12-16T09:41:20.283Z,24.85
2018-12-16T09:43:47.456Z,23.25
2018-12-16T09:46:14.585Z,24.25
2018-12-16T09:48:41.694Z,25.50
2018-12-16T09:51:08.882Z,25.32
2018-12-16T09:53:36.034Z,23.45
2018-12-16T09:56:03.409Z,26.40
2018-12-16T09:58:37.173Z,25.10
2018-12-16T10:01:04.473Z,26.33
2018-12-16T10:03:31.714Z,25.48
2018-12-16T10:05:59.107Z,26.40
2018-12-16T10:08:26.212Z,26.87
2018-12-16T10:10:53.347Z,24.70
2018-12-16T10:13:20.460Z,26.00
2018-12-16T10:15:47.615Z,27.02
2018-12-16T10:18:14.766Z,27.65
2018-12-16T10:20:42.037Z,25.80
2018-12-16T10:23:09.160Z,27.05
2018-12-16T10:25:36.361Z,25.32
2018-12-16T10:28:03.482Z,48.50
2018-12-16T10:30:30.658Z,31.52
2018-12-16T10:32:57.764Z,27.07
2018-12-16T10:35:24.972Z,27.60
2018-12-16T10:37:52.239Z,26.48
2018-12-16T10:40:19.356Z,26.33
2018-12-16T10:42:46.654Z,25.77
2018-12-16T10:45:13.911Z,27.05
2018-12-16T10:47:41.042Z,27.62
2018-12-16T10:50:08.278Z,26.07
2018-12-16T10:52:35.389Z,24.20
2018-12-16T10:55:03.203Z,25.95
2018-12-16T10:57:30.554Z,25.25
2018-12-16T10:59:57.677Z,25.23
2018-12-16T11:02:25.035Z,25.62
2018-12-16T11:04:52.390Z,25.15
2018-12-16T11:07:19.543Z,25.05
2018-12-16T11:09:46.795Z,24.75
2018-12-16T11:12:14.485Z,26.05
2018-12-16T11:14:41.614Z,24.65
2018-12-16T11:17:09.054Z,24.20
2018-12-16T11:19:36.555Z,25.65
2018-12-16T11:22:03.997Z,24.55
2018-12-16T11:24:31.104Z,24.02
2018-12-16T11:26:58.376Z,24.67
2018-12-16T11:29:25.841Z,24.72
2018-12-16T11:31:53.085Z,23.85
2018-12-16T11:34:20.198Z,22.58
2018-12-16T11:36:47.372Z,23.42
2018-12-16T11:39:14.894Z,22.67
2018-12-16T11:41:45.145Z,23.77
2018-12-16T11:44:17.900Z,23.25
2018-12-16T11:46:49.388Z,23.25
2018-12-16T11:49:18.751Z,23.90
2018-12-16T11:51:46.130Z,23.50
2018-12-16T11:54:17.620Z,24.15
2018-12-16T11:56:44.867Z,24.63
2018-12-16T11:59:11.979Z,23.95
2018-12-16T12:01:39.235Z,24.63
2018-12-16T12:04:06.435Z,23.55
2018-12-16T12:06:34.478Z,24.65
2018-12-16T12:09:01.634Z,24.07
2018-12-16T12:14:05.239Z,24.55
2018-12-16T12:16:34.923Z,24.12
2018-12-16T12:19:02.277Z,26.07
2018-12-16T12:21:29.510Z,30.82
2018-12-16T12:23:56.739Z,27.77
2018-12-16T12:26:24.082Z,26.12
2018-12-16T12:28:51.411Z,23.98
2018-12-16T12:31:18.698Z,23.62
2018-12-16T12:33:45.850Z,24.98
2018-12-16T12:36:13.142Z,24.63
2018-12-16T12:38:40.395Z,24.75
2018-12-16T12:41:07.570Z,24.60
2018-12-16T12:43:34.717Z,23.90
2018-12-16T12:46:01.870Z,26.25
2018-12-16T12:48:30.406Z,24.75
2018-12-16T12:50:57.750Z,25.55
2018-12-16T12:53:24.895Z,25.77
2018-12-16T12:55:52.150Z,24.47
2018-12-16T12:58:19.331Z,23.22
2018-12-16T13:00:46.548Z,27.55
2018-12-16T13:03:13.810Z,26.73
2018-12-16T13:05:41.217Z,25.75
2018-12-16T13:08:08.394Z,24.75
2018-12-16T13:10:35.626Z,26.73
2018-12-16T13:13:03.045Z,25.90
2018-12-16T13:15:30.201Z,28.50
2018-12-16T13:17:57.468Z,25.10
2018-12-16T13:20:24.718Z,25.08
2018-12-16T13:22:51.846Z,26.33
2018-12-16T13:26:30.978Z,26.62
2018-12-16T13:28:58.110Z,25.20
2018-12-16T13:31:25.392Z,40.63
2018-12-16T13:33:52.627Z,38.48
2018-12-16T13:36:19.795Z,26.45
2018-12-16T13:38:47.054Z,24.35
2018-12-16T13:41:14.187Z,24.63
2018-12-16T13:43:41.321Z,24.52
2018-12-16T13:46:08.514Z,26.90
2018-12-16T13:48:42.931Z,24.37
2018-12-16T13:51:10.186Z,25.72
2018-12-16T13:53:37.333Z,24.20
2018-12-16T13:56:04.670Z,25.57
2018-12-16T13:58:32.771Z,24.45
2018-12-16T14:01:00.094Z,25.72
2018-12-16T14:03:27.323Z,26.15
2018-12-16T14:05:54.751Z,25.70
2018-12-16T14:08:22.019Z,26.42
2018-12-16T14:10:49.272Z,26.82
2018-12-16T14:13:16.498Z,23.40
2018-12-16T14:15:43.666Z,23.87
2018-12-16T14:18:10.849Z,25.45
2018-12-16T14:20:37.980Z,25.30
2018-12-16T14:23:05.339Z,24.87
2018-12-16T14:25:32.599Z,24.90
2018-12-16T14:28:00.085Z,26.48
2018-12-16T14:30:27.208Z,24.40
2018-12-16T14:32:54.328Z,25.35
2018-12-16T14:35:21.762Z,26.50
2018-12-16T14:37:49.033Z,40.98
2018-12-16T14:40:16.413Z,26.75
2018-12-16T14:42:43.830Z,23.62
2018-12-16T14:45:11.060Z,27.58
2018-12-16T14:47:38.219Z,24.25
2018-12-16T14:50:08.090Z,25.15
2018-12-16T14:52:35.212Z,27.42
2018-12-16T14:55:02.971Z,26.93
2018-12-16T14:57:30.126Z,27.50
2018-12-16T14:59:57.245Z,27.67
2018-12-16T15:02:24.625Z,30.52
2018-12-16T15:04:51.969Z,29.52
2018-12-16T15:07:19.497Z,28.17
2018-12-16T15:09:46.755Z,27.63
2018-12-16T15:12:16.205Z,28.23
2018-12-16T15:14:43.634Z,27.60
2018-12-16T15:17:11.011Z,28.12
2018-12-16T15:19:38.225Z,28.00
2018-12-16T15:22:05.577Z,28.20
2018-12-16T15:24:32.685Z,26.60
2018-12-16T15:26:59.823Z,28.87
2018-12-16T15:29:26.967Z,29.18
2018-12-16T15:31:54.172Z,28.07
2018-12-16T15:34:21.295Z,30.02
2018-12-16T15:36:48.420Z,31.23
2018-12-16T15:39:15.594Z,31.07
2018-12-16T15:41:42.726Z,31.15
2018-12-16T15:44:09.934Z,29.12
2018-12-16T15:46:37.110Z,29.52
2018-12-16T15:49:04.491Z,29.55
2018-12-16T15:51:31.744Z,32.17
2018-12-16T15:53:58.900Z,31.75
2018-12-16T15:56:26.159Z,31.70
2018-12-16T15:58:53.342Z,33.88
2018-12-16T16:01:20.698Z,35.23
2018-12-16T16:03:47.947Z,34.63
2018-12-16T16:06:15.885Z,34.67
2018-12-16T16:08:43.031Z,36.00
2018-12-16T16:11:10.188Z,35.65
2018-12-16T16:13:37.462Z,35.03
2018-12-16T16:16:04.763Z,34.43
2018-12-16T16:18:31.902Z,35.52
2018-12-16T16:21:00.169Z,33.30
2018-12-16T16:23:27.421Z,35.98
2018-12-16T16:25:54.729Z,37.75
2018-12-16T16:28:21.848Z,36.60
2018-12-16T16:30:49.129Z,35.13
2018-12-16T16:33:16.411Z,40.30
2018-12-16T16:35:43.813Z,41.10
2018-12-16T16:38:11.651Z,37.17
2018-12-16T16:40:39.174Z,37.23
2018-12-16T16:43:06.297Z,38.13
2018-12-16T16:45:33.440Z,37.20
2018-12-16T16:48:00.805Z,39.38
2018-12-16T16:50:27.939Z,33.78
2018-12-16T16:52:55.459Z,32.33
2018-12-16T16:55:22.716Z,29.95
2018-12-16T16:57:50.046Z,29.85
2018-12-16T17:00:17.328Z,29.25
2018-12-16T17:02:44.761Z,32.38
2018-12-16T17:05:12.006Z,31.30
2018-12-16T17:07:39.391Z,32.58
2018-12-16T17:10:07.281Z,33.30
2018-12-16T17:12:34.635Z,33.02
2018-12-16T17:15:02.206Z,30.08
2018-12-16T17:17:29.341Z,29.50
2018-12-16T17:19:56.468Z,29.90
2018-12-16T17:22:23.620Z,30.82
2018-12-16T17:24:50.773Z,31.10
2018-12-16T17:27:18.113Z,33.23
2018-12-16T17:29:45.393Z,30.15
2018-12-16T17:32:12.602Z,32.83
2018-12-16T17:34:39.849Z,32.45
2018-12-16T17:37:07.448Z,33.35
2018-12-16T17:39:36.140Z,33.40
2018-12-16T17:42:04.347Z,33.30
2018-12-16T17:44:31.724Z,30.27
2018-12-16T17:46:59.010Z,32.20
2018-12-16T17:49:27.228Z,29.87
2018-12-16T17:51:55.081Z,28.98
2018-12-16T17:54:22.293Z,30.90
2018-12-16T17:56:49.788Z,30.57
2018-12-16T17:59:17.973Z,32.75
2018-12-16T18:01:45.847Z,31.20
2018-12-16T18:04:13.410Z,31.93
2018-12-16T18:06:40.779Z,29.50
2018-12-16T18:09:08.922Z,32.83
2018-12-16T18:11:36.674Z,30.55
2018-12-16T18:14:04.271Z,30.50
2018-12-16T18:16:31.675Z,31.00
2018-12-16T18:18:59.154Z,29.05
2018-12-16T18:21:26.285Z,32.15
2018-12-16T18:23:53.414Z,32.83
2018-12-16T18:26:20.591Z,32.40
2018-12-16T18:28:47.774Z,32.83
2018-12-16T18:31:14.892Z,35.60
2018-12-16T18:33:42.149Z,35.83
2018-12-16T18:36:09.334Z,35.88
2018-12-16T18:38:36.459Z,36.33
2018-12-16T18:41:03.881Z,33.60
2018-12-16T18:43:31.036Z,33.18
2018-12-16T18:45:58.412Z,35.63
2018-12-16T18:48:25.541Z,37.55
2018-12-16T18:50:52.779Z,35.55
2018-12-16T18:53:20.157Z,37.28
2018-12-16T18:55:47.404Z,36.23
2018-12-16T18:58:14.548Z,36.08
2018-12-16T19:00:41.935Z,37.73
2018-12-16T19:03:09.170Z,38.50
2018-12-16T19:05:36.438Z,38.73
2018-12-16T19:08:03.590Z,39.27
2018-12-16T19:10:30.731Z,38.75
2018-12-16T19:12:57.980Z,37.67
2018-12-16T19:15:25.618Z,40.83
2018-12-16T19:17:52.883Z,40.92
2018-12-16T19:20:20.130Z,44.25
2018-12-16T19:22:47.307Z,41.18
2018-12-16T19:25:15.046Z,41.95
2018-12-16T19:27:42.180Z,43.00
2018-12-16T19:30:09.454Z,41.73
2018-12-16T19:32:36.776Z,39.90
2018-12-16T19:35:05.565Z,38.28
2018-12-16T19:37:32.818Z,36.55
2018-12-16T19:39:59.977Z,39.20
2018-12-16T19:42:27.326Z,38.98
2018-12-16T19:44:54.474Z,38.13
2018-12-16T19:47:21.727Z,36.50
2018-12-16T19:49:49.038Z,42.35
2018-12-16T19:52:16.489Z,41.00
2018-12-16T19:54:50.641Z,37.93
2018-12-16T19:57:18.283Z,38.63
2018-12-16T19:59:45.498Z,39.80
2018-12-16T20:02:12.704Z,40.80
2018-12-16T20:04:43.915Z,39.17
2018-12-16T20:07:11.053Z,37.35
2018-12-16T20:09:38.697Z,42.58
2018-12-16T20:12:05.843Z,39.78
2018-12-16T20:14:32.981Z,38.38
2018-12-16T20:17:00.117Z,38.38
2018-12-16T20:19:27.494Z,36.38
2018-12-16T20:21:54.863Z,42.33
2018-12-16T20:24:21.999Z,40.15
2018-12-16T20:26:49.149Z,37.17
2018-12-16T20:29:16.313Z,40.48
2018-12-16T20:31:43.595Z,38.20
2018-12-16T20:34:10.797Z,37.17
2018-12-16T20:36:38.608Z,37.28
2018-12-16T20:39:06.766Z,34.60
2018-12-16T20:41:33.934Z,37.42
2018-12-16T20:44:02.742Z,36.45
2018-12-16T20:46:30.038Z,35.98
2018-12-16T20:48:57.163Z,36.75
2018-12-16T20:51:24.330Z,35.95
2018-12-16T20:53:52.573Z,37.30
2018-12-16T20:56:19.710Z,36.75
2018-12-16T20:58:46.833Z,38.95
2018-12-16T21:01:15.133Z,40.38
2018-12-16T21:03:42.369Z,36.20
2018-12-16T21:06:09.662Z,39.03
2018-12-16T21:08:36.760Z,40.03
2018-12-16T21:11:09.937Z,41.35
2018-12-16T21:13:43.101Z,36.50
2018-12-16T21:16:16.250Z,35.98
2018-12-16T21:18:43.632Z,40.20
2018-12-16T21:21:10.919Z,39.98
2018-12-16T21:23:38.051Z,41.37
2018-12-16T21:26:05.302Z,36.42
2018-12-16T21:28:32.489Z,36.65
2018-12-16T21:30:59.899Z,39.48
2018-12-16T21:33:27.063Z,40.33
2018-12-16T21:35:54.284Z,37.95
2018-12-16T21:38:21.389Z,36.08
2018-12-16T21:40:48.520Z,34.50
2018-12-16T21:43:15.770Z,37.73
2018-12-16T21:45:42.937Z,37.00
2018-12-16T21:48:10.076Z,40.52
2018-12-16T21:50:37.257Z,42.30
2018-12-16T21:53:04.597Z,43.95
2018-12-16T21:55:32.015Z,41.63
2018-12-16T21:57:59.513Z,41.25
2018-12-16T22:00:26.784Z,38.63
2018-12-16T22:02:56.323Z,36.67
2018-12-16T22:05:29.326Z,40.98
2018-12-16T22:07:59.657Z,41.75
2018-12-16T22:10:26.951Z,42.27
2018-12-16T22:12:54.111Z,41.00
2018-12-16T22:15:21.510Z,45.00
2018-12-16T22:17:48.643Z,38.80
2018-12-16T22:20:15.811Z,42.73
2018-12-16T22:22:43.004Z,40.73
2018-12-16T22:25:10.269Z,36.88
2018-12-16T22:27:40.283Z,36.00
2018-12-16T22:30:06.762Z,38.63
2018-12-16T22:32:34.094Z,38.13
2018-12-16T22:35:01.334Z,38.50
2018-12-16T22:37:28.788Z,40.65
2018-12-16T22:39:56.099Z,39.85
2018-12-16T22:42:23.276Z,38.67
2018-12-16T22:44:50.431Z,37.17
2018-12-16T22:47:17.579Z,38.85
2018-12-16T22:49:44.742Z,38.65
2018-12-16T22:52:11.922Z,35.33
2018-12-16T22:54:39.161Z,37.80
2018-12-16T22:57:06.311Z,39.80
2018-12-16T22:59:33.452Z,34.53
2018-12-16T23:02:00.584Z,37.20
2018-12-16T23:04:27.702Z,35.38
2018-12-16T23:06:54.957Z,38.05
2018-12-16T23:09:22.025Z,40.03
2018-12-16T23:11:49.257Z,37.73
2018-12-16T23:14:16.400Z,36.35
2018-12-16T23:16:44.632Z,37.48
2018-12-16T23:19:11.891Z,34.80
2018-12-16T23:21:39.013Z,36.77
2018-12-16T23:24:06.155Z,37.13
2018-12-16T23:26:33.281Z,37.33
2018-12-16T23:29:00.470Z,38.83
2018-12-16T23:31:27.596Z,42.33
2018-12-16T23:33:54.849Z,41.08
2018-12-16T23:36:21.970Z,42.17
2018-12-16T23:38:49.137Z,43.23
2018-12-16T23:41:16.282Z,41.00
2018-12-16T23:43:43.444Z,38.35
2018-12-16T23:46:10.645Z,37.78
2018-12-16T23:48:37.821Z,37.30
2018-12-16T23:51:04.957Z,40.05
2018-12-16T23:56:05.946Z,38.50
2018-12-16T23:58:33.137Z,37.53
